Time;durP1;ratioP1;P1;durP2;ratioP2;P2;SDS_P1;SDS_P2;PMS_P1;PMS_P2;Temp;Humidity;BMP_temperature;BMP_pressure;BME280_temperature;BME280_humidity;BME280_pressure;Samples;Min_cycle;Max_cycle;Signal;HPM_P1;HPM_P2
2021/11/17 02:26:33;;;;;;;;;;;;;;;;;;1025049;28;1468;-22
2021/11/17 02:27:09;;;;;;;;;;;;;;;;;;1024941;28;1920;-22
2021/11/17 02:28:00;;;;;;;;;;;;;;;;;;1024840;28;1214;-22
2021/11/17 02:28:33;;;;;;;;;;;;;;;;;;1017607;29;1169;-22
2021/11/17 02:29:04;;;;;;;;;;;;;;;;;;1020923;29;832;-22
2021/11/17 02:30:06;;;;;;;;;;;;;;;;;;1021250;29;827;-23
2021/11/17 02:30:37;;;;;;;;;;;;;;;;;;1016896;29;1212;-22
2021/11/17 02:31:40;;;;;;;;;;;;;;;;;;1021605;28;1327;-22
2021/11/17 02:32:15;;;;;;;;;;;;;;;;;;1020883;29;1022;-21
2021/11/17 02:32:58;;;;;;;;;;;;;;;;;;1021163;29;1081;-21
2021/11/17 02:33:35;;;;;;;;;;;;;;;;;;1016801;29;976;-21
2021/11/17 02:34:09;;;;;;;;;;;;;;;;;;1017173;29;961;-22
2021/11/17 02:34:59;;;;;;;;;;;;;;;;;;1013087;29;987;-23
2021/11/17 02:35:38;;;;;;;;;;;;;;;;;;1020155;29;1420;-22
2021/11/17 02:36:14;;;;;;;;;;;;;;;;;;1021142;29;938;-21
2021/11/17 02:36:48;;;;;;;;;;;;;;;;;;1025313;28;1120;-21
2021/11/17 02:37:37;;;;;;;;;;;;;;;;;;1025337;28;1507;-22
2021/11/17 02:38:23;;;;;;;;;;;;;;;;;;1025647;28;960;-23
2021/11/17 02:39:15;;;;;;;;;;;;;;;;;;1025560;28;922;-22
2021/11/17 02:39:46;;;;;;;;;;;;;;;;;;1025709;28;973;-22
2021/11/17 02:40:35;;;;;;;;;;;;;;;;;;1025536;28;1700;-22
2021/11/17 02:41:20;;;;;;;;;;;;;;;;;;1017780;29;1044;-22
2021/11/17 02:42:03;;;;;;;;;;;;;;;;;;1017096;29;1739;-21
2021/11/17 02:42:58;;;;;;;;;;;;;;;;;;1017756;29;1085;-23
2021/11/17 02:43:35;;;;;;;;;;;;;;;;;;1017497;29;1415;-22
2021/11/17 02:44:13;;;;;;;;;;;;;;;;;;1017550;29;1152;-22
2021/11/17 02:45:01;;;;;;;;;;;;;;;;;;1017013;29;952;-22
2021/11/17 02:45:44;;;;;;;;;;;;;;;;;;1016770;29;1406;-21
2021/11/17 02:46:20;;;;;;;;;;;;;;;;;;1009458;29;1000;-22
2021/11/17 02:46:56;;;;;;;;;;;;;;;;;;1009094;29;987;-22
2021/11/17 02:47:34;;;;;;;;;;;;;;;;;;1009192;29;1271;-22
2021/11/17 02:48:04;;;;;;;;;;;;;;;;;;1014232;29;959;-22
2021/11/17 02:48:34;;;;;;;;;;;;;;;;;;1017876;29;1028;-21
2021/11/17 02:49:05;;;;;;;;;;;;;;;;;;1017590;29;962;-22
2021/11/17 02:49:42;;;;;;;;;;;;;;;;;;1017839;29;1018;-22
2021/11/17 02:50:21;;;;;;;;;;;;;;;;;;1017206;29;1019;-21
2021/11/17 02:50:54;;;;;;;;;;;;;;;;;;1017161;29;1004;-22
2021/11/17 02:51:30;;;;;;;;;;;;;;;;;;1016928;29;1115;-22
2021/11/17 02:52:25;;;;;;;;;;;;;;;;;;1015657;29;1016;-22
2021/11/17 02:52:58;;;;;;;;;;;;;;;;;;1012916;29;1510;-21
2021/11/17 02:53:34;;;;;;;;;;;;;;;;;;1012774;29;1085;-22
2021/11/17 02:54:18;;;;;;;;;;;;;;;;;;1009035;29;1018;-23
2021/11/17 02:54:48;;;;;;;;;;;;;;;;;;1011667;29;1415;-22
2021/11/17 02:55:18;;;;;;;;;;;;;;;;;;1013319;29;1045;-22
2021/11/17 02:55:58;;;;;;;;;;;;;;;;;;1014620;29;1253;-22
2021/11/17 02:56:48;;;;;;;;;;;;;;;;;;1017659;29;1064;-22
2021/11/17 02:57:40;;;;;;;;;;;;;;;;;;1017829;29;981;-22
2021/11/17 02:58:17;;;;;;;;;;;;;;;;;;1016777;29;1180;-22
2021/11/17 02:58:54;;;;;;;;;;;;;;;;;;1016814;29;1013;-22
2021/11/17 02:59:47;;;;;;;;;;;;;;;;;;1017030;29;1009;-22
2021/11/17 03:00:18;;;;;;;;;;;;;;;;;;1012633;29;2020;-22
2021/11/17 03:00:55;;;;;;;;;;;;;;;;;;1012847;29;986;-22
2021/11/17 03:01:30;;;;;;;;;;;;;;;;;;1012866;29;1522;-21
2021/11/17 03:02:10;;;;;;;;;;;;;;;;;;1012922;29;962;-22
2021/11/17 03:02:46;;;;;;;;;;;;;;;;;;1013666;29;938;-22
2021/11/17 03:03:36;;;;;;;;;;;;;;;;;;1008618;29;1428;-21
2021/11/17 03:04:24;;;;;;;;;;;;;;;;;;1008894;29;1053;-23
2021/11/17 03:04:55;;;;;;;;;;;;;;;;;;1011741;29;1428;-22
2021/11/17 03:05:32;;;;;;;;;;;;;;;;;;1017010;29;1078;-22
2021/11/17 03:06:21;;;;;;;;;;;;;;;;;;1013559;29;1985;-22
2021/11/17 03:06:54;;;;;;;;;;;;;;;;;;1013040;29;840;-22
2021/11/17 03:07:33;;;;;;;;;;;;;;;;;;1013780;29;978;-21
2021/11/17 03:08:24;;;;;;;;;;;;;;;;;;1013560;29;1070;-22
2021/11/17 03:08:57;;;;;;;;;;;;;;;;;;1011235;29;1374;-22
2021/11/17 03:09:41;;;;;;;;;;;;;;;;;;1013807;29;1470;-22
2021/11/17 03:10:25;;;;;;;;;;;;;;;;;;1012971;29;1704;-21
2021/11/17 03:10:55;;;;;;;;;;;;;;;;;;1012828;29;1161;-22
2021/11/17 03:11:26;;;;;;;;;;;;;;;;;;1013058;29;1172;-23
2021/11/17 03:12:05;;;;;;;;;;;;;;;;;;1013009;29;863;-23
2021/11/17 03:12:37;;;;;;;;;;;;;;;;;;1013527;29;954;-23
2021/11/17 03:13:13;;;;;;;;;;;;;;;;;;1013697;29;991;-22
2021/11/17 03:13:52;;;;;;;;;;;;;;;;;;1013423;29;1622;-22
2021/11/17 03:14:23;;;;;;;;;;;;;;;;;;1013378;29;1108;-22
2021/11/17 03:15:04;;;;;;;;;;;;;;;;;;1013871;29;835;-21
2021/11/17 03:15:44;;;;;;;;;;;;;;;;;;1013721;29;985;-22
2021/11/17 03:16:21;;;;;;;;;;;;;;;;;;1013340;29;1425;-23
2021/11/17 03:17:15;;;;;;;;;;;;;;;;;;1013698;29;1127;-21
2021/11/17 03:17:57;;;;;;;;;;;;;;;;;;1012684;29;2038;-21
2021/11/17 03:18:41;;;;;;;;;;;;;;;;;;1013099;29;907;-22
2021/11/17 03:19:11;;;;;;;;;;;;;;;;;;1012678;29;879;-23
2021/11/17 03:19:54;;;;;;;;;;;;;;;;;;1013496;29;1164;-23
2021/11/17 03:20:27;;;;;;;;;;;;;;;;;;1013673;29;1255;-22
2021/11/17 03:21:03;;;;;;;;;;;;;;;;;;1013486;29;1216;-22
2021/11/17 03:21:39;;;;;;;;;;;;;;;;;;1013846;29;969;-22
2021/11/17 03:22:29;;;;;;;;;;;;;;;;;;1013419;29;1607;-22
2021/11/17 03:22:59;;;;;;;;;;;;;;;;;;1013608;29;1056;-23
2021/11/17 03:23:35;;;;;;;;;;;;;;;;;;1013408;29;950;-22
2021/11/17 03:24:09;;;;;;;;;;;;;;;;;;1013775;29;1040;-22
2021/11/17 03:24:42;;;;;;;;;;;;;;;;;;1012880;29;1038;-21
2021/11/17 03:25:22;;;;;;;;;;;;;;;;;;1012939;29;974;-22
2021/11/17 03:26:11;;;;;;;;;;;;;;;;;;1012975;29;1911;-22
2021/11/17 03:26:47;;;;;;;;;;;;;;;;;;1013063;29;990;-21
2021/11/17 03:27:18;;;;;;;;;;;;;;;;;;1016670;29;1352;-22
2021/11/17 03:27:48;;;;;;;;;;;;;;;;;;1016557;29;1357;-22
2021/11/17 03:28:24;;;;;;;;;;;;;;;;;;1015979;29;1179;-22
2021/11/17 03:29:15;;;;;;;;;;;;;;;;;;1012948;29;954;-22
2021/11/17 03:30:04;;;;;;;;;;;;;;;;;;1012357;29;1177;-22
2021/11/17 03:30:44;;;;;;;;;;;;;;;;;;1012813;29;882;-21
2021/11/17 03:31:23;;;;;;;;;;;;;;;;;;1013246;29;1054;-21
2021/11/17 03:32:00;;;;;;;;;;;;;;;;;;1013667;29;958;-22
2021/11/17 03:32:33;;;;;;;;;;;;;;;;;;1013635;29;820;-24
2021/11/17 03:33:12;;;;;;;;;;;;;;;;;;1013331;29;1397;-22
2021/11/17 03:33:45;;;;;;;;;;;;;;;;;;1013504;29;1010;-21
2021/11/17 03:34:34;;;;;;;;;;;;;;;;;;1013488;29;1013;-21
2021/11/17 03:35:04;;;;;;;;;;;;;;;;;;1013641;29;864;-21
2021/11/17 03:35:53;;;;;;;;;;;;;;;;;;1013767;29;918;-22
2021/11/17 03:36:46;;;;;;;;;;;;;;;;;;1012994;29;1399;-22
2021/11/17 03:37:23;;;;;;;;;;;;;;;;;;1005042;29;995;-23
2021/11/17 03:38:28;;;;;;;;;;;;;;;;;;1005081;29;1063;-22
2021/11/17 03:39:14;;;;;;;;;;;;;;;;;;1007271;29;958;-22
2021/11/17 03:39:44;;;;;;;;;;;;;;;;;;1013516;29;950;-21
2021/11/17 03:40:17;;;;;;;;;;;;;;;;;;1013415;29;998;-21
2021/11/17 03:40:57;;;;;;;;;;;;;;;;;;1018234;29;1258;-21
2021/11/17 03:41:28;;;;;;;;;;;;;;;;;;1012356;29;1538;-22
2021/11/17 03:42:13;;;;;;;;;;;;;;;;;;1013056;29;1499;-21
2021/11/17 03:42:56;;;;;;;;;;;;;;;;;;1012755;29;951;-22
2021/11/17 03:43:58;;;;;;;;;;;;;;;;;;1016268;29;1002;-22
2021/11/17 03:44:48;;;;;;;;;;;;;;;;;;1008667;29;1162;-22
2021/11/17 03:45:18;;;;;;;;;;;;;;;;;;1013503;29;1331;-22
2021/11/17 03:46:07;;;;;;;;;;;;;;;;;;1020817;29;1914;-21
2021/11/17 03:46:49;;;;;;;;;;;;;;;;;;1021241;29;1056;-22
2021/11/17 03:47:26;;;;;;;;;;;;;;;;;;1021457;29;914;-22
2021/11/17 03:48:03;;;;;;;;;;;;;;;;;;1021487;29;1335;-22
2021/11/17 03:48:37;;;;;;;;;;;;;;;;;;1021208;29;1108;-22
2021/11/17 03:49:07;;;;;;;;;;;;;;;;;;1021364;29;1405;-22
2021/11/17 03:49:46;;;;;;;;;;;;;;;;;;1021218;29;1320;-21
2021/11/17 03:50:36;;;;;;;;;;;;;;;;;;1020254;29;1570;-21
2021/11/17 03:51:25;;;;;;;;;;;;;;;;;;1016584;29;908;-22
2021/11/17 03:52:10;;;;;;;;;;;;;;;;;;1016811;29;1081;-21
2021/11/17 03:52:43;;;;;;;;;;;;;;;;;;1017380;29;979;-22
2021/11/17 03:53:19;;;;;;;;;;;;;;;;;;1021307;29;1364;-22
2021/11/17 03:53:49;;;;;;;;;;;;;;;;;;1021149;29;973;-21
2021/11/17 03:54:26;;;;;;;;;;;;;;;;;;1021654;29;907;-21
2021/11/17 03:55:26;;;;;;;;;;;;;;;;;;1021165;29;1475;-22
2021/11/17 03:56:20;;;;;;;;;;;;;;;;;;1005135;29;1275;-22
2021/11/17 03:57:24;;;;;;;;;;;;;;;;;;1019031;29;1058;-21
2021/11/17 03:57:57;;;;;;;;;;;;;;;;;;1016412;29;961;-22
2021/11/17 03:58:35;;;;;;;;;;;;;;;;;;1016819;29;950;-22
2021/11/17 03:59:08;;;;;;;;;;;;;;;;;;1016554;29;954;-22
2021/11/17 03:59:38;;;;;;;;;;;;;;;;;;1018505;29;1436;-22
2021/11/17 04:00:11;;;;;;;;;;;;;;;;;;1028453;28;1198;-22
2021/11/17 04:00:46;;;;;;;;;;;;;;;;;;1029350;28;1069;-22
2021/11/17 04:01:41;;;;;;;;;;;;;;;;;;1024447;28;1167;-22
2021/11/17 04:02:23;;;;;;;;;;;;;;;;;;1024848;28;1095;-23
2021/11/17 04:03:06;;;;;;;;;;;;;;;;;;1021515;28;1019;-22
2021/11/17 04:03:55;;;;;;;;;;;;;;;;;;1020695;29;952;-22
2021/11/17 04:05:01;;;;;;;;;;;;;;;;;;1020592;29;972;-22
2021/11/17 04:05:31;;;;;;;;;;;;;;;;;;1016519;29;1521;-22
2021/11/17 04:06:11;;;;;;;;;;;;;;;;;;1012313;29;1990;-22
2021/11/17 04:06:47;;;;;;;;;;;;;;;;;;1012905;29;975;-23
2021/11/17 04:07:20;;;;;;;;;;;;;;;;;;1018376;28;1199;-22
2021/11/17 04:08:00;;;;;;;;;;;;;;;;;;1027046;28;1151;-21
2021/11/17 04:08:56;;;;;;;;;;;;;;;;;;1029587;28;926;-22
2021/11/17 04:09:27;;;;;;;;;;;;;;;;;;1016423;29;1219;-23
2021/11/17 04:10:03;;;;;;;;;;;;;;;;;;1018794;28;1135;-22
2021/11/17 04:10:46;;;;;;;;;;;;;;;;;;1029384;28;1108;-23
2021/11/17 04:11:29;;;;;;;;;;;;;;;;;;1029331;28;998;-23
2021/11/17 04:12:11;;;;;;;;;;;;;;;;;;1029438;28;996;-22
2021/11/17 04:12:45;;;;;;;;;;;;;;;;;;1024985;28;858;-22
2021/11/17 04:13:18;;;;;;;;;;;;;;;;;;1024577;28;873;-21
2021/11/17 04:14:13;;;;;;;;;;;;;;;;;;1024619;28;918;-23
2021/11/17 04:14:43;;;;;;;;;;;;;;;;;;1028887;28;954;-21
2021/11/17 04:15:25;;;;;;;;;;;;;;;;;;1029295;28;823;-22
2021/11/17 04:15:59;;;;;;;;;;;;;;;;;;1029312;28;823;-22
2021/11/17 04:16:54;;;;;;;;;;;;;;;;;;1029347;28;946;-22
2021/11/17 04:17:40;;;;;;;;;;;;;;;;;;1029252;28;870;-21
2021/11/17 04:18:28;;;;;;;;;;;;;;;;;;1029284;28;1041;-22
2021/11/17 04:18:58;;;;;;;;;;;;;;;;;;1028844;28;1502;-22
2021/11/17 04:19:45;;;;;;;;;;;;;;;;;;1029051;28;1021;-22
2021/11/17 04:20:38;;;;;;;;;;;;;;;;;;1029120;28;982;-22
2021/11/17 04:21:21;;;;;;;;;;;;;;;;;;1016544;29;1142;-22
2021/11/17 04:22:04;;;;;;;;;;;;;;;;;;1019105;28;1151;-21
2021/11/17 04:22:53;;;;;;;;;;;;;;;;;;1029478;28;917;-22
2021/11/17 04:23:29;;;;;;;;;;;;;;;;;;1029150;28;1395;-22
2021/11/17 04:24:00;;;;;;;;;;;;;;;;;;1024633;28;885;-21
2021/11/17 04:24:39;;;;;;;;;;;;;;;;;;1024505;28;1018;-23
2021/11/17 04:25:12;;;;;;;;;;;;;;;;;;1024621;28;944;-24
2021/11/17 04:25:56;;;;;;;;;;;;;;;;;;1026129;28;854;-22
2021/11/17 04:26:36;;;;;;;;;;;;;;;;;;1028909;28;923;-22
2021/11/17 04:27:12;;;;;;;;;;;;;;;;;;1029434;28;879;-22
2021/11/17 04:28:06;;;;;;;;;;;;;;;;;;1020545;28;1441;-22
2021/11/17 04:28:48;;;;;;;;;;;;;;;;;;1020125;28;2155;-21
2021/11/17 04:29:19;;;;;;;;;;;;;;;;;;1020494;28;1001;-23
2021/11/17 04:29:49;;;;;;;;;;;;;;;;;;1020142;29;1390;-22
2021/11/17 04:30:27;;;;;;;;;;;;;;;;;;1021947;28;1081;-22
2021/11/17 04:31:16;;;;;;;;;;;;;;;;;;1024932;28;981;-22
2021/11/17 04:31:56;;;;;;;;;;;;;;;;;;1028714;28;938;-22
2021/11/17 04:32:35;;;;;;;;;;;;;;;;;;1029162;28;930;-21
2021/11/17 04:33:11;;;;;;;;;;;;;;;;;;1029242;28;938;-22
2021/11/17 04:33:48;;;;;;;;;;;;;;;;;;1020477;29;1001;-21
2021/11/17 04:34:37;;;;;;;;;;;;;;;;;;1020687;29;1295;-23
2021/11/17 04:35:24;;;;;;;;;;;;;;;;;;1016758;29;904;-21
2021/11/17 04:36:06;;;;;;;;;;;;;;;;;;1016818;29;1083;-21
2021/11/17 04:36:47;;;;;;;;;;;;;;;;;;1020598;29;1097;-21
2021/11/17 04:37:25;;;;;;;;;;;;;;;;;;1020543;29;978;-21
2021/11/17 04:38:11;;;;;;;;;;;;;;;;;;1012859;29;978;-23
2021/11/17 04:38:51;;;;;;;;;;;;;;;;;;1008579;29;1006;-21
2021/11/17 04:39:21;;;;;;;;;;;;;;;;;;1016806;29;952;-22
2021/11/17 04:39:52;;;;;;;;;;;;;;;;;;1022976;28;1047;-22
2021/11/17 04:40:22;;;;;;;;;;;;;;;;;;1025572;28;1541;-22
2021/11/17 04:40:55;;;;;;;;;;;;;;;;;;1029127;28;1190;-21
2021/11/17 04:41:45;;;;;;;;;;;;;;;;;;1029119;28;1006;-22
2021/11/17 04:42:22;;;;;;;;;;;;;;;;;;1029236;28;1072;-22
2021/11/17 04:43:05;;;;;;;;;;;;;;;;;;1029316;28;922;-21
2021/11/17 04:43:41;;;;;;;;;;;;;;;;;;1029281;28;863;-22
2021/11/17 04:44:30;;;;;;;;;;;;;;;;;;1028624;28;1008;-22
2021/11/17 04:45:09;;;;;;;;;;;;;;;;;;1028334;28;1438;-21
2021/11/17 04:45:59;;;;;;;;;;;;;;;;;;1020653;29;1014;-22
2021/11/17 04:46:47;;;;;;;;;;;;;;;;;;1024560;28;990;-22
2021/11/17 04:47:20;;;;;;;;;;;;;;;;;;1025446;28;1132;-22
2021/11/17 04:48:09;;;;;;;;;;;;;;;;;;1029176;28;947;-24
2021/11/17 04:48:55;;;;;;;;;;;;;;;;;;1028798;28;1402;-21
2021/11/17 04:49:28;;;;;;;;;;;;;;;;;;1024724;28;1205;-22
2021/11/17 04:50:04;;;;;;;;;;;;;;;;;;1024999;28;1118;-21
2021/11/17 04:50:35;;;;;;;;;;;;;;;;;;1025028;28;1174;-21
2021/11/17 04:51:08;;;;;;;;;;;;;;;;;;1026231;28;957;-22
2021/11/17 04:51:55;;;;;;;;;;;;;;;;;;1023730;28;1481;-22
2021/11/17 04:52:44;;;;;;;;;;;;;;;;;;1024533;28;941;-23
2021/11/17 04:53:16;;;;;;;;;;;;;;;;;;1019503;29;1356;-21
2021/11/17 04:54:05;;;;;;;;;;;;;;;;;;1020184;29;1135;-22
2021/11/17 04:54:36;;;;;;;;;;;;;;;;;;1012722;29;1183;-22
2021/11/17 04:55:06;;;;;;;;;;;;;;;;;;1015202;29;801;-22
2021/11/17 04:55:37;;;;;;;;;;;;;;;;;;1024210;28;1194;-22
2021/11/17 04:56:07;;;;;;;;;;;;;;;;;;1029318;28;985;-23
2021/11/17 04:56:56;;;;;;;;;;;;;;;;;;1028964;28;1402;-21
2021/11/17 04:57:46;;;;;;;;;;;;;;;;;;1020574;29;944;-22
2021/11/17 04:58:16;;;;;;;;;;;;;;;;;;1020720;29;978;-22
2021/11/17 04:59:05;;;;;;;;;;;;;;;;;;1020407;29;1095;-21
2021/11/17 04:59:44;;;;;;;;;;;;;;;;;;1024565;28;907;-22
2021/11/17 05:00:15;;;;;;;;;;;;;;;;;;1020692;29;1016;-21
2021/11/17 05:01:04;;;;;;;;;;;;;;;;;;1020956;29;1110;-21
2021/11/17 05:01:41;;;;;;;;;;;;;;;;;;1020953;29;1379;-22
2021/11/17 05:02:36;;;;;;;;;;;;;;;;;;1021190;29;1123;-21
2021/11/17 05:03:25;;;;;;;;;;;;;;;;;;1021087;29;1137;-22
2021/11/17 05:04:04;;;;;;;;;;;;;;;;;;1021183;29;930;-21
2021/11/17 05:04:53;;;;;;;;;;;;;;;;;;1021292;29;936;-22
2021/11/17 05:05:29;;;;;;;;;;;;;;;;;;1021220;29;1212;-21
2021/11/17 05:06:03;;;;;;;;;;;;;;;;;;1012378;29;1903;-22
2021/11/17 05:06:39;;;;;;;;;;;;;;;;;;1012157;29;1106;-22
2021/11/17 05:07:15;;;;;;;;;;;;;;;;;;1012819;29;1053;-22
2021/11/17 05:07:52;;;;;;;;;;;;;;;;;;1016747;29;1052;-22
2021/11/17 05:08:37;;;;;;;;;;;;;;;;;;1021192;29;1577;-22
2021/11/17 05:09:14;;;;;;;;;;;;;;;;;;1020976;29;928;-22
2021/11/17 05:09:48;;;;;;;;;;;;;;;;;;1021310;29;864;-22
2021/11/17 05:10:27;;;;;;;;;;;;;;;;;;1021200;29;795;-22
2021/11/17 05:11:17;;;;;;;;;;;;;;;;;;1021335;29;927;-22
2021/11/17 05:12:06;;;;;;;;;;;;;;;;;;1012119;29;1325;-21
2021/11/17 05:13:00;;;;;;;;;;;;;;;;;;1012656;29;905;-22
2021/11/17 05:13:50;;;;;;;;;;;;;;;;;;1008221;29;1227;-22
2021/11/17 05:14:29;;;;;;;;;;;;;;;;;;1018670;28;996;-22
2021/11/17 05:15:05;;;;;;;;;;;;;;;;;;1021277;29;946;-23
2021/11/17 05:15:54;;;;;;;;;;;;;;;;;;1020434;29;1027;-21
2021/11/17 05:16:33;;;;;;;;;;;;;;;;;;1020425;29;831;-22
2021/11/17 05:17:10;;;;;;;;;;;;;;;;;;1008419;29;1153;-21
2021/11/17 05:17:58;;;;;;;;;;;;;;;;;;1008841;29;1022;-22
2021/11/17 05:18:31;;;;;;;;;;;;;;;;;;1008706;29;1079;-21
2021/11/17 05:19:19;;;;;;;;;;;;;;;;;;1019253;29;840;-22
2021/11/17 05:19:56;;;;;;;;;;;;;;;;;;1021224;29;823;-22
2021/11/17 05:20:35;;;;;;;;;;;;;;;;;;1021432;29;982;-21
2021/11/17 05:21:27;;;;;;;;;;;;;;;;;;1021030;29;926;-22
2021/11/17 05:22:00;;;;;;;;;;;;;;;;;;1021152;29;1960;-22
2021/11/17 05:22:49;;;;;;;;;;;;;;;;;;1020994;29;1083;-22
2021/11/17 05:23:34;;;;;;;;;;;;;;;;;;1021161;28;1076;-22
2021/11/17 05:24:08;;;;;;;;;;;;;;;;;;1017168;29;1048;-21
2021/11/17 05:24:45;;;;;;;;;;;;;;;;;;1017045;29;1413;-22
2021/11/17 05:25:35;;;;;;;;;;;;;;;;;;1017145;29;1105;-22
2021/11/17 05:26:15;;;;;;;;;;;;;;;;;;1020615;29;1911;-21
2021/11/17 05:26:58;;;;;;;;;;;;;;;;;;1013306;29;1051;-21
2021/11/17 05:27:45;;;;;;;;;;;;;;;;;;1009419;29;1257;-22
2021/11/17 05:28:24;;;;;;;;;;;;;;;;;;1009569;29;900;-21
2021/11/17 05:29:08;;;;;;;;;;;;;;;;;;1013245;29;1069;-21
2021/11/17 05:29:41;;;;;;;;;;;;;;;;;;1013553;29;947;-22
2021/11/17 05:30:11;;;;;;;;;;;;;;;;;;1013424;29;1034;-21
2021/11/17 05:30:54;;;;;;;;;;;;;;;;;;1017871;29;844;-22
2021/11/17 05:31:31;;;;;;;;;;;;;;;;;;1013367;29;1533;-22
2021/11/17 05:32:13;;;;;;;;;;;;;;;;;;1013646;29;970;-21
2021/11/17 05:32:45;;;;;;;;;;;;;;;;;;1017001;29;1685;-21
2021/11/17 05:33:27;;;;;;;;;;;;;;;;;;1014369;29;1484;-21
2021/11/17 05:34:03;;;;;;;;;;;;;;;;;;1013351;29;1151;-22
2021/11/17 05:34:46;;;;;;;;;;;;;;;;;;1020753;29;994;-22
2021/11/17 05:35:39;;;;;;;;;;;;;;;;;;1021914;28;1041;-22
2021/11/17 05:36:12;;;;;;;;;;;;;;;;;;1021530;29;1844;-21
2021/11/17 05:36:52;;;;;;;;;;;;;;;;;;1021554;29;1471;-22
2021/11/17 05:37:32;;;;;;;;;;;;;;;;;;1021883;29;949;-21
2021/11/17 05:38:08;;;;;;;;;;;;;;;;;;1020699;28;1383;-21
2021/11/17 05:38:51;;;;;;;;;;;;;;;;;;1020902;29;1180;-22
2021/11/17 05:39:39;;;;;;;;;;;;;;;;;;1021020;28;1140;-23
2021/11/17 05:40:10;;;;;;;;;;;;;;;;;;1022007;29;943;-21
2021/11/17 05:40:59;;;;;;;;;;;;;;;;;;1016954;29;1093;-22
2021/11/17 05:41:52;;;;;;;;;;;;;;;;;;1016863;29;1451;-21
2021/11/17 05:42:28;;;;;;;;;;;;;;;;;;998920;29;1242;-22
2021/11/17 05:43:17;;;;;;;;;;;;;;;;;;1001596;29;1515;-22
2021/11/17 05:43:48;;;;;;;;;;;;;;;;;;1017222;29;973;-21
2021/11/17 05:44:36;;;;;;;;;;;;;;;;;;1020834;29;1152;-22
2021/11/17 05:45:15;;;;;;;;;;;;;;;;;;1021711;29;1057;-21
2021/11/17 05:45:58;;;;;;;;;;;;;;;;;;1021986;29;826;-21
2021/11/17 05:46:29;;;;;;;;;;;;;;;;;;1021607;28;1399;-22
2021/11/17 05:47:02;;;;;;;;;;;;;;;;;;1020946;29;1120;-21
2021/11/17 05:47:43;;;;;;;;;;;;;;;;;;1021181;29;1039;-21
2021/11/17 05:48:17;;;;;;;;;;;;;;;;;;1017072;29;1063;-21
2021/11/17 05:48:59;;;;;;;;;;;;;;;;;;1017154;29;1424;-21
2021/11/17 05:49:59;;;;;;;;;;;;;;;;;;1017239;29;1061;-21
2021/11/17 05:50:48;;;;;;;;;;;;;;;;;;1011816;29;1062;-22
2021/11/17 05:51:21;;;;;;;;;;;;;;;;;;1021709;29;1189;-22
2021/11/17 05:51:51;;;;;;;;;;;;;;;;;;1021812;29;887;-21
2021/11/17 05:52:22;;;;;;;;;;;;;;;;;;1021915;29;936;-23
2021/11/17 05:52:52;;;;;;;;;;;;;;;;;;1017374;29;1011;-21
2021/11/17 05:53:28;;;;;;;;;;;;;;;;;;1013141;29;946;-25
2021/11/17 05:54:05;;;;;;;;;;;;;;;;;;1012987;29;1140;-22
2021/11/17 05:54:46;;;;;;;;;;;;;;;;;;1013217;29;846;-22
2021/11/17 05:55:22;;;;;;;;;;;;;;;;;;1015914;29;1077;-22
2021/11/17 05:56:11;;;;;;;;;;;;;;;;;;1020080;29;1490;-23
2021/11/17 05:56:56;;;;;;;;;;;;;;;;;;1020924;29;1095;-22
2021/11/17 05:57:40;;;;;;;;;;;;;;;;;;1021392;29;934;-22
2021/11/17 05:58:23;;;;;;;;;;;;;;;;;;1020787;29;1552;-23
2021/11/17 05:58:53;;;;;;;;;;;;;;;;;;1020997;29;1001;-23
2021/11/17 05:59:36;;;;;;;;;;;;;;;;;;1021122;29;1136;-21
2021/11/17 06:00:09;;;;;;;;;;;;;;;;;;1026859;28;1150;-22
2021/11/17 06:00:49;;;;;;;;;;;;;;;;;;1029626;28;966;-22
2021/11/17 06:01:35;;;;;;;;;;;;;;;;;;1029706;28;896;-21
2021/11/17 06:02:06;;;;;;;;;;;;;;;;;;1028910;28;1236;-21
2021/11/17 06:02:39;;;;;;;;;;;;;;;;;;1024606;28;1396;-21
2021/11/17 06:03:10;;;;;;;;;;;;;;;;;;1016651;29;1321;-22
2021/11/17 06:03:41;;;;;;;;;;;;;;;;;;1012840;29;1011;-22
2021/11/17 06:04:12;;;;;;;;;;;;;;;;;;1009171;29;1344;-22
2021/11/17 06:04:45;;;;;;;;;;;;;;;;;;1013022;29;1427;-24
2021/11/17 06:05:15;;;;;;;;;;;;;;;;;;1021448;28;1184;-21
2021/11/17 06:05:46;;;;;;;;;;;;;;;;;;1024872;28;1221;-22
2021/11/17 06:06:16;;;;;;;;;;;;;;;;;;1025055;28;1918;-22
2021/11/17 06:06:46;;;;;;;;;;;;;;;;;;1025225;28;1078;-22
2021/11/17 06:07:26;;;;;;;;;;;;;;;;;;1026383;28;934;-21
2021/11/17 06:07:56;;;;;;;;;;;;;;;;;;1029787;28;982;-22
2021/11/17 06:08:27;;;;;;;;;;;;;;;;;;1025084;28;1092;-22
2021/11/17 06:08:57;;;;;;;;;;;;;;;;;;1025021;28;876;-21
2021/11/17 06:09:30;;;;;;;;;;;;;;;;;;1024805;28;1134;-22
2021/11/17 06:10:27;;;;;;;;;;;;;;;;;;1025152;28;1064;-21
2021/11/17 06:11:02;;;;;;;;;;;;;;;;;;1018395;28;1049;-22
2021/11/17 06:11:33;;;;;;;;;;;;;;;;;;1020997;29;1028;-21
2021/11/17 06:12:23;;;;;;;;;;;;;;;;;;1016718;29;1429;-21
2021/11/17 06:12:56;;;;;;;;;;;;;;;;;;1010573;29;1094;-21
2021/11/17 06:13:27;;;;;;;;;;;;;;;;;;1023095;28;1154;-21
2021/11/17 06:13:59;;;;;;;;;;;;;;;;;;1028614;28;1061;-21
2021/11/17 06:14:31;;;;;;;;;;;;;;;;;;1021200;29;1289;-21
2021/11/17 06:15:03;;;;;;;;;;;;;;;;;;1020064;29;1498;-21
2021/11/17 06:15:35;;;;;;;;;;;;;;;;;;1020713;29;1309;-22
2021/11/17 06:16:08;;;;;;;;;;;;;;;;;;1021971;28;1307;-22
2021/11/17 06:16:44;;;;;;;;;;;;;;;;;;1028900;28;1066;-22
2021/11/17 06:17:16;;;;;;;;;;;;;;;;;;1025047;28;1082;-21
2021/11/17 06:17:49;;;;;;;;;;;;;;;;;;1019821;29;1283;-22
2021/11/17 06:18:21;;;;;;;;;;;;;;;;;;1013030;29;1172;-23
2021/11/17 06:18:53;;;;;;;;;;;;;;;;;;1013988;29;981;-22
2021/11/17 06:19:25;;;;;;;;;;;;;;;;;;1010224;29;983;-22
2021/11/17 06:19:56;;;;;;;;;;;;;;;;;;1018447;28;1120;-22
2021/11/17 06:20:29;;;;;;;;;;;;;;;;;;1024507;28;1513;-21
2021/11/17 06:21:01;;;;;;;;;;;;;;;;;;1029173;28;1071;-21
2021/11/17 06:21:33;;;;;;;;;;;;;;;;;;1016742;29;1540;-21
2021/11/17 06:22:05;;;;;;;;;;;;;;;;;;1016778;29;1037;-22
2021/11/17 06:22:36;;;;;;;;;;;;;;;;;;1013346;29;1210;-22
2021/11/17 06:23:17;;;;;;;;;;;;;;;;;;1013473;29;1634;-21
2021/11/17 06:23:56;;;;;;;;;;;;;;;;;;1021164;29;994;-23
2021/11/17 06:24:27;;;;;;;;;;;;;;;;;;1025421;28;1424;-21
2021/11/17 06:24:59;;;;;;;;;;;;;;;;;;1020969;29;1303;-22
2021/11/17 06:25:30;;;;;;;;;;;;;;;;;;1020958;29;1085;-22
2021/11/17 06:26:05;;;;;;;;;;;;;;;;;;1020947;29;1910;-21
2021/11/17 06:26:40;;;;;;;;;;;;;;;;;;1010206;29;1241;-22
2021/11/17 06:27:13;;;;;;;;;;;;;;;;;;1013040;29;1174;-22
2021/11/17 06:27:46;;;;;;;;;;;;;;;;;;1017118;29;993;-21
2021/11/17 06:28:18;;;;;;;;;;;;;;;;;;1008358;29;1477;-21
2021/11/17 06:28:58;;;;;;;;;;;;;;;;;;1016862;29;1204;-21
2021/11/17 06:29:30;;;;;;;;;;;;;;;;;;1017237;29;970;-21
2021/11/17 06:30:01;;;;;;;;;;;;;;;;;;1022411;28;976;-22
2021/11/17 06:30:35;;;;;;;;;;;;;;;;;;1029584;28;1057;-21
2021/11/17 06:31:05;;;;;;;;;;;;;;;;;;1020808;29;1388;-22
2021/11/17 06:31:38;;;;;;;;;;;;;;;;;;1020605;29;1216;-22
2021/11/17 06:32:10;;;;;;;;;;;;;;;;;;1009409;29;1020;-22
2021/11/17 06:32:41;;;;;;;;;;;;;;;;;;1009523;29;1336;-22
2021/11/17 06:33:11;;;;;;;;;;;;;;;;;;1013059;29;1100;-22
2021/11/17 06:33:42;;;;;;;;;;;;;;;;;;1013489;29;962;-22
2021/11/17 06:34:31;;;;;;;;;;;;;;;;;;1001278;29;1002;-22
2021/11/17 06:35:04;;;;;;;;;;;;;;;;;;1000523;29;1671;-21
2021/11/17 06:35:36;;;;;;;;;;;;;;;;;;996481;29;1416;-23
2021/11/17 06:36:06;;;;;;;;;;;;;;;;;;1000452;29;1098;-21
2021/11/17 06:36:37;;;;;;;;;;;;;;;;;;1005132;29;1450;-21
2021/11/17 06:37:09;;;;;;;;;;;;;;;;;;1004805;29;1246;-21
2021/11/17 06:37:40;;;;;;;;;;;;;;;;;;1005659;29;1052;-22
2021/11/17 06:38:14;;;;;;;;;;;;;;;;;;1012393;29;1399;-21
2021/11/17 06:38:45;;;;;;;;;;;;;;;;;;1010747;29;1061;-21
2021/11/17 06:39:16;;;;;;;;;;;;;;;;;;1020458;29;983;-21
2021/11/17 06:39:48;;;;;;;;;;;;;;;;;;1015910;29;1393;-23
2021/11/17 06:40:22;;;;;;;;;;;;;;;;;;1017138;28;1069;-21
2021/11/17 06:40:53;;;;;;;;;;;;;;;;;;1023284;28;1427;-22
2021/11/17 06:41:25;;;;;;;;;;;;;;;;;;1013901;29;1207;-22
2021/11/17 06:41:56;;;;;;;;;;;;;;;;;;1020433;29;1151;-21
2021/11/17 06:42:30;;;;;;;;;;;;;;;;;;1020304;29;1415;-22
2021/11/17 06:43:00;;;;;;;;;;;;;;;;;;1021977;28;1165;-22
2021/11/17 06:43:31;;;;;;;;;;;;;;;;;;1029221;28;878;-22
2021/11/17 06:44:01;;;;;;;;;;;;;;;;;;1028819;28;1532;-21
2021/11/17 06:44:32;;;;;;;;;;;;;;;;;;1029085;28;985;-22
2021/11/17 06:45:04;;;;;;;;;;;;;;;;;;1029110;28;989;-22
2021/11/17 06:45:43;;;;;;;;;;;;;;;;;;1019780;29;1629;-22
2021/11/17 06:46:13;;;;;;;;;;;;;;;;;;1020210;29;1907;-21
2021/11/17 06:46:44;;;;;;;;;;;;;;;;;;1020419;29;982;-21
2021/11/17 06:47:15;;;;;;;;;;;;;;;;;;1020218;28;957;-21
2021/11/17 06:47:46;;;;;;;;;;;;;;;;;;1020337;28;1254;-21
2021/11/17 06:48:17;;;;;;;;;;;;;;;;;;1019241;29;1632;-21
2021/11/17 06:48:47;;;;;;;;;;;;;;;;;;1012285;29;1092;-21
2021/11/17 06:49:18;;;;;;;;;;;;;;;;;;1007759;29;1379;-21
2021/11/17 06:49:51;;;;;;;;;;;;;;;;;;1008568;29;1429;-21
2021/11/17 06:50:22;;;;;;;;;;;;;;;;;;1005353;29;1024;-21
2021/11/17 06:50:53;;;;;;;;;;;;;;;;;;1013364;29;1161;-22
2021/11/17 06:51:26;;;;;;;;;;;;;;;;;;1016325;29;1040;-21
2021/11/17 06:51:58;;;;;;;;;;;;;;;;;;1017169;28;1273;-21
2021/11/17 06:52:28;;;;;;;;;;;;;;;;;;1024214;28;1159;-22
2021/11/17 06:52:59;;;;;;;;;;;;;;;;;;1024829;28;1103;-22
2021/11/17 06:53:29;;;;;;;;;;;;;;;;;;1028685;28;1367;-22
2021/11/17 06:54:00;;;;;;;;;;;;;;;;;;1029211;28;1088;-21
2021/11/17 06:54:30;;;;;;;;;;;;;;;;;;1024192;28;1418;-22
2021/11/17 06:55:01;;;;;;;;;;;;;;;;;;1024425;28;1005;-21
2021/11/17 06:55:31;;;;;;;;;;;;;;;;;;1024379;28;1111;-21